Time;durP1;ratioP1;P1;durP2;ratioP2;P2;SDS_P1;SDS_P2;PMS_P1;PMS_P2;Temp;Humidity;BMP_temperature;BMP_pressure;BME280_temperature;BME280_humidity;BME280_pressure;Samples;Min_cycle;Max_cycle;Signal;HPM_P1;HPM_P2
2023/09/09 00:10:47;;;;;;;9.77;8.80;;;;;;;;;;5026722;28;20419;-91
2023/09/09 00:13:14;;;;;;;11.37;8.47;;;;;;;;;;5008933;28;20452;-93
2023/09/09 00:15:41;;;;;;;10.10;9.00;;;;;;;;;;4972957;28;20472;-91
2023/09/09 00:18:08;;;;;;;9.50;8.03;;;;;;;;;;4971158;28;20525;-91
2023/09/09 00:20:35;;;;;;;10.20;8.50;;;;;;;;;;4983679;28;20465;-91
2023/09/09 00:23:07;;;;;;;11.80;8.10;;;;;;;;;;4985216;28;20908;-91
2023/09/09 01:52:10;;;;;;;9.00;8.10;;;;;;;;;;1144161;22;20914;-90
2023/09/09 04:25:38;;;;;;;10.63;9.20;;;;;;;;;;6194272;22;4079848;-93
2023/09/09 04:28:04;;;;;;;12.50;9.37;;;;;;;;;;6272840;22;20191;-93
2023/09/09 04:30:30;;;;;;;10.43;9.33;;;;;;;;;;6274565;22;20859;-93
2023/09/09 04:32:57;;;;;;;10.17;9.13;;;;;;;;;;6275278;22;20444;-92
2023/09/09 04:35:23;;;;;;;10.37;9.37;;;;;;;;;;6278138;22;20415;-93
2023/09/09 04:40:37;;;;;;;9.67;8.67;;;;;;;;;;6298305;22;20628;-92
2023/09/09 04:43:03;;;;;;;9.43;8.33;;;;;;;;;;6276220;22;20402;-92
2023/09/09 04:45:29;;;;;;;13.33;10.47;;;;;;;;;;6276191;22;20368;-93
2023/09/09 04:47:59;;;;;;;11.27;9.70;;;;;;;;;;6277265;22;20911;-94
2023/09/09 04:50:25;;;;;;;10.40;9.17;;;;;;;;;;6302091;22;20376;-93
2023/09/09 04:52:51;;;;;;;11.17;9.73;;;;;;;;;;6275746;22;20465;-93
2023/09/09 04:55:17;;;;;;;15.50;10.43;;;;;;;;;;6277866;22;20392;-93
2023/09/09 04:57:43;;;;;;;10.07;9.07;;;;;;;;;;6274693;22;20385;-93
2023/09/09 05:00:09;;;;;;;10.10;9.10;;;;;;;;;;6278097;22;20401;-93
2023/09/09 05:02:36;;;;;;;12.20;9.70;;;;;;;;;;6275972;22;20387;-93
2023/09/09 05:05:04;;;;;;;11.40;10.20;;;;;;;;;;6277970;22;20384;-93
2023/09/09 05:07:31;;;;;;;15.03;9.93;;;;;;;;;;6274688;22;20375;-93
2023/09/09 05:09:57;;;;;;;12.93;10.47;;;;;;;;;;6275443;22;20375;-93
2023/09/09 05:12:23;;;;;;;12.17;10.83;;;;;;;;;;6275586;22;20356;-94
2023/09/09 05:14:49;;;;;;;11.60;10.00;;;;;;;;;;6281788;22;20368;-92
2023/09/09 05:17:15;;;;;;;13.73;9.50;;;;;;;;;;6273791;22;20401;-92
2023/09/09 05:19:42;;;;;;;14.10;9.43;;;;;;;;;;6273810;22;20369;-92
2023/09/09 05:22:09;;;;;;;13.70;9.47;;;;;;;;;;6265862;22;20410;-92
2023/09/09 05:24:35;;;;;;;10.87;9.80;;;;;;;;;;6268869;22;20434;-93
2023/09/09 05:27:01;;;;;;;11.90;9.97;;;;;;;;;;6265381;22;20770;-92
2023/09/09 05:29:27;;;;;;;11.27;10.17;;;;;;;;;;6269441;22;20416;-93
2023/09/09 05:31:54;;;;;;;10.37;9.30;;;;;;;;;;6266604;22;20387;-93
2023/09/09 05:34:20;;;;;;;10.47;9.30;;;;;;;;;;6266629;22;20677;-93
2023/09/09 05:36:47;;;;;;;14.30;9.57;;;;;;;;;;6266203;22;20399;-93
2023/09/09 05:39:13;;;;;;;10.60;9.17;;;;;;;;;;6269283;22;20393;-93
2023/09/09 05:41:39;;;;;;;11.83;10.60;;;;;;;;;;6267024;22;20459;-93
2023/09/09 05:44:07;;;;;;;10.50;9.40;;;;;;;;;;6272736;22;20910;-93
2023/09/09 05:46:33;;;;;;;13.90;10.63;;;;;;;;;;6269793;22;20384;-93
2023/09/09 05:48:59;;;;;;;12.00;9.73;;;;;;;;;;6271128;22;20408;-92
2023/09/09 05:51:25;;;;;;;14.53;10.73;;;;;;;;;;6266279;22;20377;-92
2023/09/09 05:53:51;;;;;;;11.37;10.30;;;;;;;;;;6268601;22;20373;-93
2023/09/09 05:56:17;;;;;;;11.10;9.90;;;;;;;;;;6266133;22;20429;-93
2023/09/09 05:58:43;;;;;;;12.50;10.23;;;;;;;;;;6269024;22;20915;-93
2023/09/09 06:01:09;;;;;;;12.60;9.80;;;;;;;;;;6267480;22;20376;-92
2023/09/09 06:03:35;;;;;;;13.90;9.20;;;;;;;;;;6268978;22;20357;-92
2023/09/09 06:06:02;;;;;;;22.07;10.60;;;;;;;;;;6293640;22;20414;-92
2023/09/09 06:08:29;;;;;;;11.70;10.60;;;;;;;;;;6270044;22;20428;-92
2023/09/09 06:10:55;;;;;;;15.50;10.67;;;;;;;;;;6290955;22;20475;-93
2023/09/09 06:13:21;;;;;;;12.80;11.10;;;;;;;;;;6266895;22;20384;-93
2023/09/09 06:15:47;;;;;;;12.93;10.60;;;;;;;;;;6266900;22;20419;-93
2023/09/09 06:20:50;;;;;;;16.17;11.17;;;;;;;;;;6352402;22;20430;-94
2023/09/09 06:23:16;;;;;;;12.40;11.10;;;;;;;;;;6296657;22;20383;-93
2023/09/09 06:25:42;;;;;;;11.63;9.67;;;;;;;;;;6297475;22;20851;-92
2023/09/09 06:28:08;;;;;;;11.67;10.20;;;;;;;;;;6299082;22;20422;-93
2023/09/09 06:30:34;;;;;;;11.93;10.57;;;;;;;;;;6325213;22;20380;-93
2023/09/09 06:33:00;;;;;;;12.43;9.53;;;;;;;;;;6299108;22;20928;-94
2023/09/09 06:35:28;;;;;;;12.47;11.17;;;;;;;;;;6298387;22;20402;-93
2023/09/09 06:37:54;;;;;;;11.20;10.10;;;;;;;;;;6300749;22;20371;-93
2023/09/09 06:40:20;;;;;;;11.17;10.17;;;;;;;;;;6296604;22;20401;-94
2023/09/09 06:42:50;;;;;;;12.03;10.77;;;;;;;;;;6293251;22;20392;-93
2023/09/09 06:45:16;;;;;;;14.30;11.10;;;;;;;;;;6299644;22;20380;-94
2023/09/09 06:47:43;;;;;;;12.43;10.97;;;;;;;;;;6264892;22;20404;-91
2023/09/09 06:50:10;;;;;;;10.00;8.93;;;;;;;;;;6261900;22;20380;-92
2023/09/09 06:52:47;;;;;;;15.40;12.17;;;;;;;;;;6275294;22;20384;-93
2023/09/09 07:03:01;;;;;;;10.60;9.50;;;;;;;;;;6348307;22;20411;-93
2023/09/09 07:05:27;;;;;;;11.97;10.87;;;;;;;;;;6295638;22;20384;-93
2023/09/09 07:07:53;;;;;;;13.07;11.73;;;;;;;;;;6299710;22;20359;-93
2023/09/09 07:10:19;;;;;;;11.97;10.77;;;;;;;;;;6297872;22;20424;-93
2023/09/09 07:12:46;;;;;;;17.30;12.57;;;;;;;;;;6296031;22;20380;-93
2023/09/09 07:15:12;;;;;;;12.23;11.13;;;;;;;;;;6293987;22;20399;-94
2023/09/09 07:17:46;;;;;;;11.50;10.30;;;;;;;;;;6297809;22;20372;-94
2023/09/09 07:20:12;;;;;;;11.33;9.63;;;;;;;;;;6347029;22;20360;-93
2023/09/09 07:22:38;;;;;;;11.10;9.80;;;;;;;;;;6294773;22;20382;-93
2023/09/09 07:25:05;;;;;;;13.00;10.20;;;;;;;;;;6292266;22;20423;-93
2023/09/09 07:27:46;;;;;;;10.93;9.90;;;;;;;;;;6298218;22;20364;-93
2023/09/09 07:30:12;;;;;;;14.10;10.80;;;;;;;;;;6317897;22;20384;-94
2023/09/09 07:32:39;;;;;;;14.67;10.27;;;;;;;;;;6293249;22;20462;-93
2023/09/09 07:35:05;;;;;;;11.00;9.90;;;;;;;;;;6294040;22;20402;-93
2023/09/09 07:37:33;;;;;;;12.60;11.03;;;;;;;;;;6324390;22;20423;-93
2023/09/09 07:39:59;;;;;;;11.90;10.70;;;;;;;;;;6295518;22;20384;-92
2023/09/09 07:42:25;;;;;;;11.00;10.00;;;;;;;;;;6294941;22;20382;-92
2023/09/09 07:44:51;;;;;;;11.70;9.77;;;;;;;;;;6294932;22;20356;-93
2023/09/09 07:47:20;;;;;;;13.30;9.63;;;;;;;;;;6292837;22;20380;-92
2023/09/09 07:49:46;;;;;;;11.30;10.30;;;;;;;;;;6295532;22;20440;-93
2023/09/09 07:52:13;;;;;;;13.00;11.53;;;;;;;;;;6294988;22;20375;-94
2023/09/09 07:54:39;;;;;;;10.33;9.40;;;;;;;;;;6295437;22;20453;-93
2023/09/09 07:57:14;;;;;;;11.33;10.13;;;;;;;;;;6296094;22;20375;-93
2023/09/09 07:59:40;;;;;;;11.90;10.70;;;;;;;;;;6314872;22;20372;-93
2023/09/09 08:02:40;;;;;;;14.23;10.13;;;;;;;;;;6264869;22;20431;-93
2023/09/09 08:05:06;;;;;;;10.30;9.30;;;;;;;;;;6286449;22;20484;-93
2023/09/09 08:07:32;;;;;;;9.93;8.97;;;;;;;;;;6264252;22;20381;-93
2023/09/09 08:09:59;;;;;;;10.20;9.30;;;;;;;;;;6235155;22;21000;-93
2023/09/09 08:12:25;;;;;;;9.40;8.50;;;;;;;;;;6263137;22;20376;-93
2023/09/09 08:15:02;;;;;;;11.20;10.10;;;;;;;;;;6262343;22;20372;-92
2023/09/09 08:17:29;;;;;;;10.40;9.47;;;;;;;;;;6260664;22;20394;-93
2023/09/09 08:19:55;;;;;;;9.33;8.43;;;;;;;;;;6285770;22;20364;-93
2023/09/09 08:22:21;;;;;;;12.33;9.60;;;;;;;;;;6262736;22;20380;-93
2023/09/09 08:24:47;;;;;;;10.40;8.93;;;;;;;;;;6261723;22;20483;-92
2023/09/09 08:27:33;;;;;;;10.53;9.43;;;;;;;;;;6260947;22;20934;-93
2023/09/09 08:29:59;;;;;;;10.20;9.30;;;;;;;;;;6298157;22;20445;-92
2023/09/09 08:32:25;;;;;;;9.93;9.03;;;;;;;;;;6297061;22;21070;-93
2023/09/09 08:34:54;;;;;;;13.07;9.87;;;;;;;;;;6300463;22;20376;-93
2023/09/09 08:37:21;;;;;;;12.60;10.53;;;;;;;;;;6293474;22;20375;-93
2023/09/09 08:39:50;;;;;;;10.03;9.03;;;;;;;;;;6295664;22;20397;-93
2023/09/09 08:42:21;;;;;;;10.60;8.70;;;;;;;;;;6295491;22;20394;-92
2023/09/09 08:44:50;;;;;;;9.33;8.37;;;;;;;;;;6297176;22;20427;-93
2023/09/09 08:47:18;;;;;;;10.50;9.50;;;;;;;;;;6320498;22;20383;-92
2023/09/09 08:49:44;;;;;;;11.90;10.80;;;;;;;;;;6294579;22;20415;-92
2023/09/09 08:52:11;;;;;;;9.87;8.90;;;;;;;;;;6293412;22;20417;-93
2023/09/09 08:54:37;;;;;;;10.00;9.10;;;;;;;;;;6296798;22;20438;-93
2023/09/09 08:57:03;;;;;;;12.37;9.60;;;;;;;;;;6295201;22;20387;-93
2023/09/09 08:59:30;;;;;;;9.67;8.77;;;;;;;;;;6298600;22;20370;-94
2023/09/09 09:01:59;;;;;;;10.00;8.97;;;;;;;;;;6294792;22;20387;-93
2023/09/09 09:04:29;;;;;;;11.87;9.83;;;;;;;;;;6296643;22;20428;-95
2023/09/09 09:06:55;;;;;;;10.43;9.43;;;;;;;;;;6295686;22;20378;-93
2023/09/09 09:09:24;;;;;;;10.20;9.20;;;;;;;;;;6302236;22;20427;-92
2023/09/09 09:11:50;;;;;;;10.03;9.03;;;;;;;;;;6296104;22;20402;-92
2023/09/09 09:14:16;;;;;;;9.03;8.27;;;;;;;;;;6260295;22;20400;-93
2023/09/09 09:20:07;;;;;;;9.23;8.37;;;;;;;;;;6192252;23;20356;-94
2023/09/09 09:22:37;;;;;;;9.43;8.37;;;;;;;;;;6172079;23;20394;-93
2023/09/09 09:25:03;;;;;;;10.20;9.30;;;;;;;;;;6167492;23;20395;-93
2023/09/09 09:27:35;;;;;;;9.17;8.23;;;;;;;;;;6172119;23;20372;-93
2023/09/09 09:30:01;;;;;;;10.40;9.50;;;;;;;;;;6167418;23;20427;-92
2023/09/09 09:32:39;;;;;;;8.83;8.13;;;;;;;;;;6167073;23;20381;-92
2023/09/09 09:35:05;;;;;;;8.97;8.03;;;;;;;;;;6164599;23;20388;-92
2023/09/09 09:37:50;;;;;;;9.30;8.40;;;;;;;;;;6162831;23;20384;-92
2023/09/09 09:40:16;;;;;;;9.13;8.33;;;;;;;;;;6162946;23;20448;-91
2023/09/09 09:43:01;;;;;;;8.60;7.90;;;;;;;;;;6172320;23;20373;-92
2023/09/09 09:45:28;;;;;;;9.03;8.23;;;;;;;;;;6154345;23;20459;-92
2023/09/09 09:47:54;;;;;;;8.93;8.03;;;;;;;;;;6167172;23;20388;-93
2023/09/09 09:50:28;;;;;;;10.13;8.97;;;;;;;;;;6164524;23;20519;-93
2023/09/09 09:53:04;;;;;;;9.73;8.83;;;;;;;;;;6168320;23;20387;-94
2023/09/09 09:55:31;;;;;;;8.83;7.93;;;;;;;;;;6186310;22;20386;-94
2023/09/09 09:58:09;;;;;;;8.77;8.00;;;;;;;;;;6265639;22;20731;-94
2023/09/09 10:00:35;;;;;;;7.57;6.97;;;;;;;;;;6192971;23;20403;-94
2023/09/09 10:03:05;;;;;;;8.30;7.50;;;;;;;;;;6158195;23;20395;-93
2023/09/09 10:05:31;;;;;;;10.90;6.93;;;;;;;;;;6200377;23;20449;-93
2023/09/09 10:08:29;;;;;;;8.50;7.20;;;;;;;;;;6177793;23;21082;-94
2023/09/09 10:11:01;;;;;;;8.00;7.20;;;;;;;;;;6179425;23;21041;-94
2023/09/09 10:16:03;;;;;;;7.70;7.00;;;;;;;;;;6347066;22;20410;-93
2023/09/09 10:18:29;;;;;;;8.07;7.23;;;;;;;;;;6329053;22;20344;-92
2023/09/09 10:20:55;;;;;;;11.70;8.40;;;;;;;;;;6311414;22;20384;-94
2023/09/09 10:23:23;;;;;;;8.50;7.70;;;;;;;;;;6272318;22;20439;-93
2023/09/09 10:25:52;;;;;;;8.93;8.13;;;;;;;;;;6273637;22;20391;-93
2023/09/09 10:28:20;;;;;;;8.80;8.00;;;;;;;;;;6262739;22;20433;-95
2023/09/09 10:30:53;;;;;;;7.40;6.67;;;;;;;;;;6262262;22;20435;-94
2023/09/09 10:33:19;;;;;;;8.00;7.20;;;;;;;;;;6285733;22;20387;-91
2023/09/09 10:35:53;;;;;;;8.93;8.10;;;;;;;;;;6260238;22;20393;-93
2023/09/09 10:38:19;;;;;;;7.43;6.63;;;;;;;;;;6286859;22;20927;-93
2023/09/09 10:40:50;;;;;;;8.40;7.57;;;;;;;;;;6261794;22;20377;-94
2023/09/09 10:43:18;;;;;;;7.80;7.00;;;;;;;;;;6237078;22;20404;-93
2023/09/09 10:48:30;;;;;;;8.73;7.37;;;;;;;;;;6265227;22;20448;-92
2023/09/09 10:50:57;;;;;;;12.00;7.37;;;;;;;;;;6261245;22;20404;-92
2023/09/09 10:53:27;;;;;;;10.10;7.50;;;;;;;;;;6260550;22;20385;-92
2023/09/09 10:55:55;;;;;;;8.93;7.50;;;;;;;;;;6263676;22;20373;-94
2023/09/09 10:58:21;;;;;;;7.60;7.00;;;;;;;;;;6261439;22;20385;-91
2023/09/09 11:00:51;;;;;;;6.97;6.27;;;;;;;;;;6281953;22;20908;-94
2023/09/09 11:03:22;;;;;;;8.00;7.20;;;;;;;;;;6286984;22;20449;-92
2023/09/09 11:06:04;;;;;;;7.27;6.40;;;;;;;;;;6235590;22;20397;-93
2023/09/09 11:08:35;;;;;;;10.93;7.47;;;;;;;;;;6235287;22;20425;-95
2023/09/09 11:11:24;;;;;;;7.97;7.17;;;;;;;;;;6262981;22;20388;-93
2023/09/09 11:13:59;;;;;;;15.80;7.67;;;;;;;;;;6256423;22;20935;-92
2023/09/09 11:16:30;;;;;;;7.47;6.70;;;;;;;;;;6234823;22;20435;-92
2023/09/09 11:18:59;;;;;;;6.97;6.30;;;;;;;;;;6239816;22;20385;-92
2023/09/09 11:26:40;;;;;;;7.47;6.77;;;;;;;;;;6321505;22;20448;-93
2023/09/09 11:29:08;;;;;;;9.57;6.03;;;;;;;;;;6271056;22;20440;-93
2023/09/09 11:31:35;;;;;;;7.40;5.83;;;;;;;;;;6304894;22;20506;-93
2023/09/09 11:34:01;;;;;;;7.93;6.97;;;;;;;;;;6294251;22;20399;-92
2023/09/09 11:36:28;;;;;;;8.20;6.77;;;;;;;;;;6290257;22;20380;-94
2023/09/09 11:38:59;;;;;;;11.33;6.67;;;;;;;;;;6291730;22;20871;-95
2023/09/09 11:41:25;;;;;;;7.03;6.43;;;;;;;;;;6293398;22;20435;-93
2023/09/09 11:43:57;;;;;;;11.43;5.53;;;;;;;;;;6298275;22;20391;-92
2023/09/09 11:46:24;;;;;;;9.33;5.53;;;;;;;;;;6320913;22;20364;-92
2023/09/09 11:48:51;;;;;;;7.57;5.70;;;;;;;;;;6293137;22;20450;-93
2023/09/09 12:01:47;;;;;;;7.83;6.20;;;;;;;;;;6352209;22;20418;-94
2023/09/09 12:04:14;;;;;;;12.53;5.47;;;;;;;;;;6273572;22;20842;-94
2023/09/09 12:06:41;;;;;;;8.40;5.50;;;;;;;;;;6296761;22;20355;-93
2023/09/09 12:09:09;;;;;;;6.50;5.20;;;;;;;;;;6324551;22;20403;-93
2023/09/09 12:11:36;;;;;;;6.77;5.63;;;;;;;;;;6298171;22;20439;-94
2023/09/09 12:14:02;;;;;;;9.00;5.07;;;;;;;;;;6298235;22;20376;-93
2023/09/09 12:16:38;;;;;;;7.20;5.90;;;;;;;;;;6294080;22;20396;-93
2023/09/09 12:19:04;;;;;;;7.37;5.77;;;;;;;;;;6321926;22;20354;-93
2023/09/09 12:24:18;;;;;;;8.67;6.27;;;;;;;;;;6292189;22;20452;-92
2023/09/09 12:26:52;;;;;;;7.90;6.20;;;;;;;;;;6287286;22;20407;-92
2023/09/09 12:29:18;;;;;;;7.53;6.33;;;;;;;;;;6314720;22;20250;-94
2023/09/09 12:31:54;;;;;;;9.03;6.37;;;;;;;;;;6293150;22;20400;-93
2023/09/09 12:34:20;;;;;;;7.03;6.30;;;;;;;;;;6230412;23;20398;-93
2023/09/09 12:36:47;;;;;;;7.57;6.57;;;;;;;;;;6206369;23;20394;-93
2023/09/09 12:39:20;;;;;;;6.53;5.50;;;;;;;;;;6206771;23;20390;-93
2023/09/09 12:41:56;;;;;;;7.80;5.77;;;;;;;;;;6206175;23;20394;-92
2023/09/09 12:44:22;;;;;;;7.80;6.00;;;;;;;;;;6205236;23;20389;-93
2023/09/09 12:46:51;;;;;;;10.03;7.17;;;;;;;;;;6208364;23;20382;-92
2023/09/09 12:49:17;;;;;;;10.97;6.73;;;;;;;;;;6206080;23;20975;-93
2023/09/09 12:52:02;;;;;;;9.63;6.30;;;;;;;;;;6209494;22;20394;-94
2023/09/09 12:54:44;;;;;;;6.87;6.17;;;;;;;;;;6212309;23;20801;-94
2023/09/09 12:57:10;;;;;;;7.33;6.07;;;;;;;;;;6198384;23;20509;-94
2023/09/09 12:59:36;;;;;;;7.17;6.47;;;;;;;;;;6175604;23;20383;-92
2023/09/09 13:02:02;;;;;;;8.33;6.70;;;;;;;;;;6177545;23;20379;-95
2023/09/09 13:04:29;;;;;;;7.00;6.03;;;;;;;;;;6194089;22;20372;-95
2023/09/09 13:06:56;;;;;;;7.40;6.10;;;;;;;;;;6271117;22;20392;-94
2023/09/09 13:09:23;;;;;;;11.03;6.27;;;;;;;;;;6271398;22;20418;-94
2023/09/09 13:11:55;;;;;;;7.10;6.40;;;;;;;;;;6271124;22;20471;-95
2023/09/09 13:14:22;;;;;;;8.00;6.03;;;;;;;;;;6323078;22;20359;-94
2023/09/09 13:16:49;;;;;;;6.90;5.53;;;;;;;;;;6295247;22;20452;-93
2023/09/09 13:19:16;;;;;;;8.47;6.43;;;;;;;;;;6267969;22;20728;-94
2023/09/09 13:21:48;;;;;;;8.20;5.93;;;;;;;;;;6270576;22;20968;-93
2023/09/09 13:24:14;;;;;;;6.47;5.83;;;;;;;;;;6270814;22;20743;-94
2023/09/09 13:27:16;;;;;;;11.67;6.40;;;;;;;;;;6271697;22;20396;-93
2023/09/09 13:29:42;;;;;;;7.57;5.88;;;;;;;;;;6294784;22;20393;-92
2023/09/09 13:32:11;;;;;;;6.63;6.03;;;;;;;;;;6269740;22;20240;-93
2023/09/09 13:34:37;;;;;;;8.60;7.00;;;;;;;;;;6291684;22;20392;-93
2023/09/09 13:37:05;;;;;;;6.67;5.97;;;;;;;;;;6268207;22;20403;-94
2023/09/09 13:39:33;;;;;;;8.20;6.57;;;;;;;;;;6295623;22;20438;-93
2023/09/09 13:42:17;;;;;;;7.40;6.70;;;;;;;;;;6269698;22;20356;-92
2023/09/09 13:44:43;;;;;;;7.53;6.83;;;;;;;;;;6267567;22;20376;-94
2023/09/09 13:47:09;;;;;;;7.97;6.00;;;;;;;;;;6293707;22;20361;-94
2023/09/09 13:49:35;;;;;;;7.57;6.70;;;;;;;;;;6268009;22;20431;-93
2023/09/09 13:52:13;;;;;;;7.10;6.40;;;;;;;;;;6268070;22;20449;-94
2023/09/09 13:54:42;;;;;;;7.30;6.57;;;;;;;;;;6219755;22;20392;-93
2023/09/09 14:00:51;;;;;;;10.40;7.63;;;;;;;;;;6320449;22;20420;-93
2023/09/09 14:03:17;;;;;;;8.23;6.33;;;;;;;;;;6292466;22;20366;-91
2023/09/09 14:05:45;;;;;;;10.90;7.87;;;;;;;;;;6271296;22;20387;-91
2023/09/09 14:08:11;;;;;;;10.47;6.33;;;;;;;;;;6233135;23;20851;-93
2023/09/09 14:10:37;;;;;;;7.47;6.77;;;;;;;;;;6206037;23;20374;-94
2023/09/09 14:13:03;;;;;;;7.20;6.00;;;;;;;;;;6172467;23;20427;-93
2023/09/09 14:15:31;;;;;;;7.73;7.03;;;;;;;;;;6145076;23;20472;-93
2023/09/09 14:17:57;;;;;;;7.20;6.50;;;;;;;;;;6149257;23;20405;-94
2023/09/09 14:20:23;;;;;;;10.60;7.50;;;;;;;;;;6109484;23;20456;-93
2023/09/09 14:22:50;;;;;;;10.37;7.50;;;;;;;;;;6113388;23;20398;-93
2023/09/09 14:25:17;;;;;;;7.57;6.87;;;;;;;;;;6105066;23;21169;-93
2023/09/09 14:27:43;;;;;;;7.70;6.37;;;;;;;;;;6108566;23;20425;-92
2023/09/09 14:30:09;;;;;;;9.43;6.60;;;;;;;;;;6104557;23;20431;-92
2023/09/09 14:32:35;;;;;;;11.70;6.53;;;;;;;;;;6110533;23;20410;-93
2023/09/09 14:35:01;;;;;;;8.77;7.37;;;;;;;;;;6105730;23;20432;-93
2023/09/09 14:37:28;;;;;;;7.27;6.67;;;;;;;;;;6106250;23;20427;-93
2023/09/09 14:39:54;;;;;;;7.30;6.60;;;;;;;;;;6129466;23;20405;-93
2023/09/09 14:42:20;;;;;;;8.83;6.47;;;;;;;;;;6113786;23;20396;-93
2023/09/09 14:44:47;;;;;;;7.67;5.83;;;;;;;;;;6110652;23;20401;-92
2023/09/09 14:47:13;;;;;;;9.30;6.83;;;;;;;;;;6110099;23;20446;-92
2023/09/09 14:49:40;;;;;;;7.10;6.40;;;;;;;;;;6121663;23;20431;-92
2023/09/09 14:52:08;;;;;;;8.13;6.30;;;;;;;;;;6248177;22;20378;-92
2023/09/09 14:54:43;;;;;;;9.53;6.93;;;;;;;;;;6260211;22;20384;-93
2023/09/09 14:57:09;;;;;;;7.87;6.20;;;;;;;;;;6238753;22;20376;-90
2023/09/09 14:59:35;;;;;;;9.67;7.57;;;;;;;;;;6228386;22;20386;-92
2023/09/09 15:02:06;;;;;;;15.37;8.00;;;;;;;;;;6233927;23;20361;-92
2023/09/09 15:04:36;;;;;;;11.47;7.10;;;;;;;;;;6228181;23;20395;-92
2023/09/09 15:07:02;;;;;;;9.10;6.57;;;;;;;;;;6229330;23;20373;-92
2023/09/09 15:09:31;;;;;;;7.53;6.10;;;;;;;;;;6228622;23;20422;-93
2023/09/09 15:11:57;;;;;;;8.17;6.80;;;;;;;;;;6227417;23;20460;-92
2023/09/09 15:14:23;;;;;;;7.77;6.97;;;;;;;;;;6228102;23;20386;-93
2023/09/09 15:16:49;;;;;;;8.17;7.33;;;;;;;;;;6228386;23;20405;-93
2023/09/09 15:19:15;;;;;;;7.97;7.20;;;;;;;;;;6227624;23;20858;-93
2023/09/09 15:21:41;;;;;;;10.00;6.67;;;;;;;;;;6230532;23;20767;-92
2023/09/09 15:24:12;;;;;;;8.40;7.43;;;;;;;;;;6230931;22;20367;-93
2023/09/09 15:26:38;;;;;;;7.03;6.30;;;;;;;;;;6228154;23;20433;-92
2023/09/09 15:29:04;;;;;;;9.03;7.50;;;;;;;;;;6203615;23;20517;-92
2023/09/09 15:31:37;;;;;;;9.57;7.07;;;;;;;;;;6255297;22;20377;-93
2023/09/09 15:34:03;;;;;;;7.23;6.63;;;;;;;;;;6290021;22;20418;-92
2023/09/09 15:36:30;;;;;;;8.10;6.07;;;;;;;;;;6260493;22;20393;-94
2023/09/09 15:38:56;;;;;;;7.47;6.40;;;;;;;;;;6261362;22;20469;-94
2023/09/09 15:41:23;;;;;;;8.57;7.37;;;;;;;;;;6260542;22;20397;-94
2023/09/09 15:43:52;;;;;;;7.77;7.03;;;;;;;;;;6264214;22;20369;-95
2023/09/09 15:46:18;;;;;;;11.93;6.43;;;;;;;;;;6285371;22;20377;-94
2023/09/09 15:48:44;;;;;;;6.70;6.10;;;;;;;;;;6262730;22;20419;-94
2023/09/09 15:51:10;;;;;;;10.70;6.30;;;;;;;;;;6262014;22;20377;-95
2023/09/09 15:53:36;;;;;;;9.23;6.60;;;;;;;;;;6264256;22;20384;-94
2023/09/09 15:56:03;;;;;;;7.00;6.30;;;;;;;;;;6260162;22;20411;-95
2023/09/09 15:58:29;;;;;;;8.47;5.87;;;;;;;;;;6285806;22;20435;-94
2023/09/09 16:00:55;;;;;;;8.20;6.93;;;;;;;;;;6260725;22;20464;-94
2023/09/09 16:03:21;;;;;;;9.07;7.60;;;;;;;;;;6259707;22;20387;-94
2023/09/09 16:05:47;;;;;;;10.87;7.80;;;;;;;;;;6260528;22;20714;-93
2023/09/09 16:08:13;;;;;;;12.60;9.60;;;;;;;;;;6266691;22;20486;-94
2023/09/09 16:10:42;;;;;;;11.63;6.50;;;;;;;;;;6287196;22;20404;-92
2023/09/09 16:13:11;;;;;;;10.07;6.33;;;;;;;;;;6264592;22;20373;-93
2023/09/09 16:15:37;;;;;;;9.70;6.97;;;;;;;;;;6260859;22;20423;-93
2023/09/09 16:18:03;;;;;;;10.00;6.10;;;;;;;;;;6259571;22;20487;-94
2023/09/09 16:20:29;;;;;;;11.00;7.80;;;;;;;;;;6259337;22;20435;-95
2023/09/09 16:22:55;;;;;;;7.43;6.73;;;;;;;;;;6263183;22;20370;-93
2023/09/09 16:25:24;;;;;;;9.67;7.27;;;;;;;;;;6262012;22;20478;-91
2023/09/09 16:27:50;;;;;;;10.63;7.23;;;;;;;;;;6262675;22;20477;-91
2023/09/09 16:30:16;;;;;;;10.40;6.80;;;;;;;;;;6263971;22;20389;-93
2023/09/09 16:32:42;;;;;;;7.20;6.10;;;;;;;;;;6263511;22;20382;-92
2023/09/09 16:35:12;;;;;;;7.23;6.53;;;;;;;;;;6263557;22;20373;-92
2023/09/09 16:37:44;;;;;;;10.40;7.30;;;;;;;;;;6266026;22;20381;-93
2023/09/09 16:40:11;;;;;;;13.40;8.70;;;;;;;;;;6292151;22;20369;-93
2023/09/09 16:42:42;;;;;;;8.20;7.00;;;;;;;;;;6262410;22;20472;-92
2023/09/09 16:45:08;;;;;;;6.93;6.23;;;;;;;;;;6262934;22;20396;-92
2023/09/09 16:47:34;;;;;;;9.53;7.30;;;;;;;;;;6259986;22;20415;-93
2023/09/09 16:50:00;;;;;;;11.07;6.80;;;;;;;;;;6234681;22;20421;-94
2023/09/09 16:52:26;;;;;;;11.73;8.23;;;;;;;;;;6234125;22;20401;-93
2023/09/09 16:54:52;;;;;;;9.60;6.37;;;;;;;;;;6233677;22;20444;-92
2023/09/09 16:57:18;;;;;;;8.73;7.67;;;;;;;;;;6235237;22;20362;-93
2023/09/09 16:59:44;;;;;;;10.30;6.80;;;;;;;;;;6236379;22;20373;-92
2023/09/09 17:02:10;;;;;;;7.40;6.33;;;;;;;;;;6234054;22;20389;-92
2023/09/09 17:04:36;;;;;;;11.80;7.40;;;;;;;;;;6236883;22;20416;-92
2023/09/09 17:07:03;;;;;;;11.87;6.50;;;;;;;;;;6234836;22;20474;-93
2023/09/09 17:09:32;;;;;;;7.93;7.13;;;;;;;;;;6236307;22;20451;-93
2023/09/09 17:11:58;;;;;;;7.50;6.27;;;;;;;;;;6235625;22;20377;-92
2023/09/09 17:14:24;;;;;;;9.80;8.87;;;;;;;;;;6238573;22;20480;-93
2023/09/09 17:16:50;;;;;;;9.70;7.07;;;;;;;;;;6234607;22;20463;-93
2023/09/09 17:19:16;;;;;;;8.93;7.67;;;;;;;;;;6256517;22;20394;-92
2023/09/09 17:21:42;;;;;;;11.67;8.60;;;;;;;;;;6257927;22;20385;-92
2023/09/09 17:24:08;;;;;;;13.43;7.80;;;;;;;;;;6263075;22;20397;-91
2023/09/09 17:26:35;;;;;;;9.70;8.70;;;;;;;;;;6262018;22;20465;-93
2023/09/09 17:29:01;;;;;;;8.83;7.93;;;;;;;;;;6261133;22;20433;-93
2023/09/09 17:31:27;;;;;;;13.40;7.80;;;;;;;;;;6258204;22;20385;-95
2023/09/09 17:33:53;;;;;;;11.93;8.70;;;;;;;;;;6262898;22;20389;-94
2023/09/09 17:36:28;;;;;;;9.10;7.47;;;;;;;;;;6259908;22;20392;-94
2023/09/09 17:39:08;;;;;;;8.47;7.10;;;;;;;;;;6262543;22;20365;-94
2023/09/09 17:41:34;;;;;;;8.33;6.80;;;;;;;;;;6285361;22;20377;-94
2023/09/09 17:44:03;;;;;;;8.70;7.33;;;;;;;;;;6259595;22;20369;-94
2023/09/09 17:46:37;;;;;;;8.60;7.57;;;;;;;;;;6260780;22;20361;-94
2023/09/09 17:49:21;;;;;;;9.50;8.00;;;;;;;;;;6272655;22;20409;-92
2023/09/09 17:52:03;;;;;;;8.60;7.80;;;;;;;;;;6261065;22;20701;-93
2023/09/09 17:54:29;;;;;;;8.87;7.30;;;;;;;;;;6265416;22;20365;-91
2023/09/09 17:56:55;;;;;;;11.43;7.90;;;;;;;;;;6262247;22;20852;-91
2023/09/09 17:59:21;;;;;;;9.00;7.40;;;;;;;;;;6262814;22;20361;-92
2023/09/09 18:01:48;;;;;;;8.10;7.30;;;;;;;;;;6261316;22;20373;-93
2023/09/09 18:04:14;;;;;;;12.30;8.07;;;;;;;;;;6264338;22;20381;-92
2023/09/09 18:06:40;;;;;;;10.33;7.73;;;;;;;;;;6260763;22;20391;-93
2023/09/09 18:09:06;;;;;;;8.93;7.87;;;;;;;;;;6261569;22;20437;-92
2023/09/09 18:11:32;;;;;;;9.07;8.27;;;;;;;;;;6284802;22;20368;-91
2023/09/09 18:13:58;;;;;;;10.37;7.70;;;;;;;;;;6266331;22;20385;-92
2023/09/09 18:16:25;;;;;;;13.50;7.70;;;;;;;;;;6260943;22;20385;-93
2023/09/09 18:19:04;;;;;;;9.50;8.20;;;;;;;;;;6268004;22;20384;-92
2023/09/09 18:21:30;;;;;;;7.60;6.60;;;;;;;;;;6284785;22;20373;-94
2023/09/09 18:24:02;;;;;;;10.80;8.07;;;;;;;;;;6265694;22;20377;-95
2023/09/09 18:26:29;;;;;;;10.13;8.07;;;;;;;;;;6262458;22;20476;-93
2023/09/09 18:28:55;;;;;;;10.50;8.10;;;;;;;;;;6261344;22;20594;-94
2023/09/09 18:31:22;;;;;;;10.13;7.80;;;;;;;;;;6286757;22;20373;-94
2023/09/09 18:33:48;;;;;;;8.97;7.27;;;;;;;;;;6260215;22;20377;-94
2023/09/09 18:36:14;;;;;;;9.97;7.50;;;;;;;;;;6260891;22;20875;-94
2023/09/09 18:38:44;;;;;;;11.00;7.87;;;;;;;;;;6260752;22;20388;-94
2023/09/09 18:41:10;;;;;;;8.77;7.67;;;;;;;;;;6261447;22;20392;-94
2023/09/09 18:43:38;;;;;;;11.10;7.70;;;;;;;;;;6264081;22;20399;-94
2023/09/09 18:46:05;;;;;;;7.70;6.53;;;;;;;;;;6262779;22;20385;-94
2023/09/09 18:48:35;;;;;;;10.53;6.90;;;;;;;;;;6262874;22;20439;-93
2023/09/09 18:51:01;;;;;;;7.70;6.80;;;;;;;;;;6263157;22;20941;-94
2023/09/09 18:53:30;;;;;;;11.97;7.63;;;;;;;;;;6264565;22;20381;-93
2023/09/09 18:55:57;;;;;;;11.90;8.47;;;;;;;;;;6295047;22;20412;-93
2023/09/09 18:58:23;;;;;;;15.93;10.30;;;;;;;;;;6261949;22;20429;-93
2023/09/09 19:00:52;;;;;;;12.80;9.80;;;;;;;;;;6264966;22;20357;-93
2023/09/09 19:03:19;;;;;;;11.77;9.27;;;;;;;;;;6262324;22;20381;-94
2023/09/09 19:05:46;;;;;;;9.43;8.43;;;;;;;;;;6265164;22;20357;-93
2023/09/09 19:08:13;;;;;;;10.30;7.80;;;;;;;;;;6261628;22;20361;-95
2023/09/09 19:10:40;;;;;;;12.50;9.00;;;;;;;;;;6288741;22;20384;-94
2023/09/09 19:13:06;;;;;;;17.03;8.20;;;;;;;;;;6261566;22;20851;-94
2023/09/09 19:15:33;;;;;;;10.00;7.73;;;;;;;;;;6291694;22;20464;-94
2023/09/09 19:18:18;;;;;;;9.20;8.03;;;;;;;;;;6287150;22;20400;-93
2023/09/09 19:20:44;;;;;;;10.23;7.80;;;;;;;;;;6266029;22;20377;-94
2023/09/09 19:23:10;;;;;;;8.87;7.97;;;;;;;;;;6258658;22;20388;-94
2023/09/09 19:25:37;;;;;;;9.23;7.30;;;;;;;;;;6274987;22;20442;-95
2023/09/09 19:28:04;;;;;;;7.90;7.10;;;;;;;;;;6266704;22;20401;-94
2023/09/09 19:30:30;;;;;;;9.00;8.10;;;;;;;;;;6268237;22;20380;-94
2023/09/09 19:32:56;;;;;;;10.17;7.83;;;;;;;;;;6266294;22;20396;-94